createdAt,value
2018-06-24T00:00:57.359Z,0.00
2018-06-24T00:01:57.253Z,0.00
2018-06-24T00:02:57.178Z,0.00
2018-06-24T00:03:57.092Z,0.00
2018-06-24T00:04:57.017Z,0.00
2018-06-24T00:05:56.934Z,0.00
2018-06-24T00:06:56.861Z,0.00
2018-06-24T00:07:56.767Z,0.00
2018-06-24T00:08:56.692Z,0.00
2018-06-24T00:09:56.611Z,0.00
2018-06-24T00:10:56.534Z,0.00
2018-06-24T00:11:56.445Z,0.00
2018-06-24T00:12:56.382Z,0.00
2018-06-24T00:13:56.341Z,0.00
2018-06-24T00:14:56.191Z,0.00
2018-06-24T00:15:56.122Z,0.00
2018-06-24T00:16:56.038Z,0.00
2018-06-24T00:17:55.956Z,0.00
2018-06-24T00:18:55.869Z,0.00
2018-06-24T00:19:55.791Z,0.00
2018-06-24T00:20:55.704Z,0.00
2018-06-24T00:21:55.637Z,0.00
2018-06-24T00:22:55.549Z,0.00
2018-06-24T00:23:55.470Z,0.00
2018-06-24T00:24:55.384Z,0.00
2018-06-24T00:25:55.292Z,0.00
2018-06-24T00:26:55.232Z,0.00
2018-06-24T00:27:55.133Z,0.00
2018-06-24T00:28:55.060Z,0.00
2018-06-24T00:29:54.975Z,0.00
2018-06-24T00:30:54.899Z,0.00
2018-06-24T00:31:54.806Z,0.00
2018-06-24T00:32:54.730Z,0.00
2018-06-24T00:33:54.648Z,0.00
2018-06-24T00:34:54.571Z,0.00
2018-06-24T00:35:54.487Z,0.00
2018-06-24T00:36:54.401Z,0.00
2018-06-24T00:37:54.319Z,0.00
2018-06-24T00:38:54.237Z,0.00
2018-06-24T00:39:54.164Z,0.00
2018-06-24T00:40:54.074Z,0.00
2018-06-24T00:41:53.995Z,0.00
2018-06-24T00:42:53.920Z,0.00
2018-06-24T00:43:53.831Z,0.00
2018-06-24T00:44:53.757Z,0.00
2018-06-24T00:45:53.675Z,0.00
2018-06-24T00:46:53.586Z,0.00
2018-06-24T00:47:53.498Z,0.00
2018-06-24T00:48:53.421Z,0.00
2018-06-24T00:49:53.339Z,0.00
2018-06-24T00:50:53.265Z,0.00
2018-06-24T00:51:53.173Z,0.00
2018-06-24T00:52:53.098Z,0.00
2018-06-24T00:53:53.019Z,0.00
2018-06-24T00:54:52.932Z,0.00
2018-06-24T00:55:52.861Z,0.00
2018-06-24T00:56:52.776Z,0.00
2018-06-24T00:57:52.684Z,0.00
2018-06-24T00:58:52.596Z,0.00
2018-06-24T00:59:52.522Z,0.00
2018-06-24T01:00:52.459Z,0.00
2018-06-24T01:01:52.365Z,0.00
2018-06-24T01:02:52.277Z,0.00
2018-06-24T01:03:52.199Z,0.00
2018-06-24T01:04:52.120Z,0.00
2018-06-24T01:05:52.040Z,0.00
2018-06-24T01:06:51.952Z,0.00
2018-06-24T01:07:51.877Z,0.00
2018-06-24T01:08:51.793Z,0.00
2018-06-24T01:09:51.700Z,0.00
2018-06-24T01:10:51.628Z,0.00
2018-06-24T01:11:51.540Z,0.00
2018-06-24T01:12:51.465Z,0.00
2018-06-24T01:13:51.373Z,0.00
2018-06-24T01:14:51.301Z,0.00
2018-06-24T01:15:51.210Z,0.00
2018-06-24T01:16:51.140Z,0.00
2018-06-24T01:17:51.051Z,0.00
2018-06-24T01:18:50.978Z,0.00
2018-06-24T01:19:50.888Z,0.00
2018-06-24T01:20:50.815Z,0.00
2018-06-24T01:21:50.729Z,0.00
2018-06-24T01:22:50.641Z,0.00
2018-06-24T01:23:50.565Z,0.00
2018-06-24T01:24:50.476Z,0.00
2018-06-24T01:25:50.397Z,0.00
2018-06-24T01:26:50.312Z,0.00
2018-06-24T01:27:50.243Z,0.00
2018-06-24T01:28:50.154Z,0.00
2018-06-24T01:29:50.075Z,0.00
2018-06-24T01:30:49.989Z,0.00
2018-06-24T01:31:49.914Z,0.00
2018-06-24T01:32:49.823Z,0.00
2018-06-24T01:33:49.741Z,0.00
2018-06-24T01:34:49.666Z,0.00
2018-06-24T01:35:49.576Z,0.00
2018-06-24T01:36:49.501Z,0.00
2018-06-24T01:37:49.419Z,0.00
2018-06-24T01:38:49.343Z,0.00
2018-06-24T01:39:49.253Z,0.00
2018-06-24T01:40:49.182Z,0.00
2018-06-24T01:41:49.088Z,0.00
2018-06-24T01:42:49.012Z,0.00
2018-06-24T01:43:48.928Z,0.00
2018-06-24T01:44:48.853Z,0.00
2018-06-24T01:45:48.767Z,0.00
2018-06-24T01:46:48.675Z,0.00
2018-06-24T01:47:48.602Z,0.00
2018-06-24T01:48:48.516Z,0.00
2018-06-24T01:49:48.447Z,0.00
2018-06-24T01:50:48.358Z,0.00
2018-06-24T01:51:48.278Z,0.00
2018-06-24T01:52:48.189Z,0.00
2018-06-24T01:53:48.121Z,0.00
2018-06-24T01:54:48.043Z,0.00
2018-06-24T01:55:47.957Z,0.00
2018-06-24T01:56:47.871Z,0.00
2018-06-24T01:57:47.779Z,0.00
2018-06-24T01:58:47.717Z,0.00
2018-06-24T01:59:47.621Z,0.00
2018-06-24T02:00:47.546Z,0.00
2018-06-24T02:01:47.455Z,0.00
2018-06-24T02:02:47.379Z,0.00
2018-06-24T02:03:47.290Z,0.00
2018-06-24T02:04:47.221Z,0.00
2018-06-24T02:05:47.132Z,0.00
2018-06-24T02:06:47.057Z,0.00
2018-06-24T02:07:46.969Z,0.00
2018-06-24T02:08:46.895Z,0.00
2018-06-24T02:09:46.809Z,4.00
2018-06-24T02:10:46.728Z,4.00
2018-06-24T02:11:46.645Z,4.00
2018-06-24T02:12:46.557Z,4.00
2018-06-24T02:13:46.491Z,0.00
2018-06-24T02:14:46.391Z,4.00
2018-06-24T02:15:46.325Z,4.00
2018-06-24T02:16:46.234Z,4.00
2018-06-24T02:17:46.153Z,8.00
2018-06-24T02:18:46.068Z,4.00
2018-06-24T02:19:46.007Z,4.00
2018-06-24T02:20:45.906Z,4.00
2018-06-24T02:21:45.828Z,8.00
2018-06-24T02:22:45.749Z,8.00
2018-06-24T02:23:45.654Z,12.00
2018-06-24T02:24:45.580Z,12.00
2018-06-24T02:25:45.496Z,12.00
2018-06-24T02:26:45.422Z,12.00
2018-06-24T02:27:45.336Z,12.00
2018-06-24T02:28:45.261Z,12.00
2018-06-24T02:29:45.172Z,12.00
2018-06-24T02:30:45.083Z,20.00
2018-06-24T02:31:45.006Z,16.00
2018-06-24T02:32:44.925Z,20.00
2018-06-24T02:33:44.847Z,20.00
2018-06-24T02:34:44.759Z,20.00
2018-06-24T02:35:44.689Z,16.00
2018-06-24T02:36:44.601Z,20.00
2018-06-24T02:37:44.524Z,28.00
2018-06-24T02:38:44.433Z,28.00
2018-06-24T02:39:44.350Z,32.00
2018-06-24T02:40:44.273Z,48.00
2018-06-24T02:41:44.191Z,48.00
2018-06-24T02:42:44.106Z,40.00
2018-06-24T02:43:44.022Z,36.00
2018-06-24T02:44:43.946Z,60.00
2018-06-24T02:45:43.863Z,60.00
2018-06-24T02:46:43.788Z,64.00
2018-06-24T02:47:43.697Z,52.00
2018-06-24T02:48:43.623Z,72.00
2018-06-24T02:49:43.538Z,96.00
2018-06-24T02:50:43.452Z,96.00
2018-06-24T02:51:43.374Z,92.00
2018-06-24T02:52:43.286Z,84.00
2018-06-24T02:53:43.263Z,80.00
2018-06-24T02:54:43.121Z,92.00
2018-06-24T02:55:43.054Z,104.00
2018-06-24T02:56:42.964Z,88.00
2018-06-24T02:57:42.872Z,108.00
2018-06-24T02:58:42.803Z,120.00
2018-06-24T02:59:42.709Z,136.00
2018-06-24T03:00:42.633Z,140.00
2018-06-24T03:01:42.554Z,140.00
2018-06-24T03:02:42.476Z,140.00
2018-06-24T03:03:42.399Z,144.00
2018-06-24T03:04:42.308Z,144.00
2018-06-24T03:05:42.226Z,156.00
2018-06-24T03:06:42.140Z,168.00
2018-06-24T03:07:42.065Z,172.00
2018-06-24T03:08:41.978Z,172.00
2018-06-24T03:09:41.899Z,168.00
2018-06-24T03:10:41.811Z,180.00
2018-06-24T03:11:41.738Z,208.00
2018-06-24T03:12:41.663Z,188.00
2018-06-24T03:13:41.572Z,204.00
2018-06-24T03:14:41.497Z,256.00
2018-06-24T03:15:41.412Z,232.00
2018-06-24T03:16:41.325Z,312.00
2018-06-24T03:17:41.244Z,280.00
2018-06-24T03:18:41.169Z,344.00
2018-06-24T03:19:41.075Z,364.00
2018-06-24T03:20:40.999Z,348.00
2018-06-24T03:21:40.916Z,368.00
2018-06-24T03:22:40.842Z,340.00
2018-06-24T03:23:40.752Z,412.00
2018-06-24T03:24:40.676Z,496.00
2018-06-24T03:25:40.587Z,448.00
2018-06-24T03:26:40.499Z,436.00
2018-06-24T03:27:40.430Z,536.00
2018-06-24T03:28:40.354Z,440.00
2018-06-24T03:29:40.262Z,444.00
2018-06-24T03:30:40.179Z,424.00
2018-06-24T03:31:40.099Z,580.00
2018-06-24T03:32:40.014Z,452.00
2018-06-24T03:33:39.930Z,444.00
2018-06-24T03:34:39.853Z,436.00
2018-06-24T03:35:39.764Z,472.00
2018-06-24T03:36:39.689Z,396.00
2018-06-24T03:37:39.606Z,444.00
2018-06-24T03:38:39.531Z,428.00
2018-06-24T03:39:39.440Z,312.00
2018-06-24T03:40:39.381Z,384.00
2018-06-24T03:41:39.275Z,360.00
2018-06-24T03:42:39.204Z,376.00
2018-06-24T03:43:39.118Z,372.00
2018-06-24T03:44:39.034Z,452.00
2018-06-24T03:45:38.954Z,404.00
2018-06-24T03:46:38.864Z,552.00
2018-06-24T03:47:38.787Z,408.00
2018-06-24T03:48:38.701Z,520.00
2018-06-24T03:49:38.634Z,616.00
2018-06-24T03:50:38.547Z,584.00
2018-06-24T03:51:38.463Z,644.00
2018-06-24T03:52:38.376Z,584.00
2018-06-24T03:53:38.293Z,960.00
2018-06-24T03:54:38.231Z,832.00
2018-06-24T03:55:38.133Z,776.00
2018-06-24T03:56:38.066Z,748.00
2018-06-24T03:57:37.967Z,808.00
2018-06-24T03:58:37.890Z,772.00
2018-06-24T03:59:37.810Z,896.00
2018-06-24T04:00:37.731Z,976.00
2018-06-24T04:01:37.638Z,972.00
2018-06-24T04:02:37.564Z,1156.00
2018-06-24T04:03:37.480Z,1112.00
2018-06-24T04:04:37.403Z,1388.00
2018-06-24T04:05:37.324Z,1328.00
2018-06-24T04:06:37.235Z,1168.00
2018-06-24T04:07:37.155Z,1636.00
2018-06-24T04:08:37.069Z,1760.00
2018-06-24T04:09:36.999Z,1508.00
2018-06-24T04:10:36.910Z,1528.00
2018-06-24T04:11:36.832Z,1748.00
2018-06-24T04:12:36.744Z,1816.00
2018-06-24T04:13:36.665Z,1812.00
2018-06-24T04:14:36.578Z,1472.00
2018-06-24T04:15:36.498Z,1588.00
2018-06-24T04:16:36.423Z,1728.00
2018-06-24T04:17:36.331Z,1868.00
2018-06-24T04:18:36.264Z,1672.00
2018-06-24T04:19:36.166Z,1700.00
2018-06-24T04:20:36.091Z,1684.00
2018-06-24T04:21:36.010Z,1608.00
2018-06-24T04:22:35.933Z,1736.00
2018-06-24T04:23:35.841Z,1772.00
2018-06-24T04:24:35.768Z,1688.00
2018-06-24T04:25:35.695Z,1696.00
2018-06-24T04:26:35.598Z,1588.00
2018-06-24T04:27:35.536Z,1624.00
2018-06-24T04:28:35.461Z,2024.00
2018-06-24T04:29:35.361Z,2228.00
2018-06-24T04:30:35.269Z,2416.00
2018-06-24T04:31:35.199Z,1996.00
2018-06-24T04:32:35.110Z,2240.00
2018-06-24T04:33:35.031Z,2660.00
2018-06-24T04:34:34.942Z,2580.00
2018-06-24T04:35:34.870Z,2652.00
2018-06-24T04:36:34.783Z,2228.00
2018-06-24T04:37:34.712Z,1836.00
2018-06-24T04:38:34.637Z,2328.00
2018-06-24T04:39:34.550Z,1580.00
2018-06-24T04:40:34.467Z,1672.00
2018-06-24T04:41:34.384Z,1728.00
2018-06-24T04:42:34.295Z,1820.00
2018-06-24T04:43:34.207Z,1828.00
2018-06-24T04:44:34.132Z,2076.00
2018-06-24T04:45:34.048Z,2228.00
2018-06-24T04:46:33.980Z,1784.00
2018-06-24T04:47:33.885Z,1968.00
2018-06-24T04:48:33.810Z,2168.00
2018-06-24T04:49:33.730Z,2524.00
2018-06-24T04:50:33.650Z,2584.00
2018-06-24T04:51:33.570Z,2692.00
2018-06-24T04:52:33.488Z,2592.00
2018-06-24T04:53:33.395Z,2484.00
2018-06-24T04:54:33.319Z,2648.00
2018-06-24T04:55:33.238Z,2048.00
2018-06-24T04:56:33.151Z,2236.00
2018-06-24T04:57:33.083Z,2532.00
2018-06-24T04:58:32.984Z,2660.00
2018-06-24T04:59:32.913Z,1980.00
2018-06-24T05:00:32.823Z,2944.00
2018-06-24T05:01:32.755Z,1940.00
2018-06-24T05:02:32.669Z,2076.00
2018-06-24T05:03:32.584Z,2836.00
2018-06-24T05:04:32.496Z,2932.00
2018-06-24T05:05:32.425Z,2208.00
2018-06-24T05:06:32.382Z,2168.00
2018-06-24T05:07:32.276Z,1900.00
2018-06-24T05:08:32.178Z,1912.00
2018-06-24T05:09:32.101Z,2368.00
2018-06-24T05:10:32.012Z,2332.00
2018-06-24T05:11:31.941Z,2172.00
2018-06-24T05:12:31.853Z,2040.00
2018-06-24T05:13:31.763Z,2096.00
2018-06-24T05:14:31.687Z,2076.00
2018-06-24T05:15:31.598Z,2044.00
2018-06-24T05:16:31.521Z,1884.00
2018-06-24T05:17:31.440Z,2228.00
2018-06-24T05:18:31.364Z,2252.00
2018-06-24T05:19:31.274Z,2568.00
2018-06-24T05:20:31.201Z,2376.00
2018-06-24T05:21:31.128Z,2908.00
2018-06-24T05:22:31.042Z,3288.00
2018-06-24T05:23:30.965Z,2824.00
2018-06-24T05:24:30.877Z,3076.00
2018-06-24T05:25:30.786Z,2884.00
2018-06-24T05:26:30.711Z,3032.00
2018-06-24T05:27:30.664Z,3404.00
2018-06-24T05:28:30.567Z,3168.00
2018-06-24T05:29:30.465Z,3220.00
2018-06-24T05:30:30.377Z,3136.00
2018-06-24T05:31:30.301Z,3248.00
2018-06-24T05:32:30.215Z,2896.00
2018-06-24T05:33:30.145Z,3280.00
2018-06-24T05:34:30.055Z,3024.00
2018-06-24T05:35:29.974Z,3204.00
2018-06-24T05:36:29.888Z,3176.00
2018-06-24T05:37:29.817Z,3172.00
2018-06-24T05:38:29.728Z,3276.00
2018-06-24T05:39:29.655Z,3712.00
2018-06-24T05:40:29.569Z,4864.00
2018-06-24T05:41:29.490Z,5096.00
2018-06-24T05:42:29.408Z,4572.00
2018-06-24T05:43:29.330Z,4212.00
2018-06-24T05:44:29.248Z,4568.00
2018-06-24T05:45:29.152Z,3740.00
2018-06-24T05:46:29.075Z,4040.00
2018-06-24T05:47:28.996Z,3824.00
2018-06-24T05:48:28.917Z,4032.00
2018-06-24T05:49:28.832Z,4156.00
2018-06-24T05:50:28.757Z,4124.00
2018-06-24T05:51:28.663Z,4144.00
2018-06-24T05:52:28.589Z,3940.00
2018-06-24T05:53:28.505Z,4444.00
2018-06-24T05:54:28.431Z,4064.00
2018-06-24T05:55:28.347Z,4284.00
2018-06-24T05:56:28.270Z,4836.00
2018-06-24T05:57:28.178Z,5012.00
2018-06-24T05:58:28.104Z,5180.00
2018-06-24T05:59:28.023Z,4912.00
2018-06-24T06:00:27.947Z,4968.00
2018-06-24T06:01:27.854Z,4736.00
2018-06-24T06:02:27.780Z,5024.00
2018-06-24T06:03:27.691Z,6116.00
2018-06-24T06:04:27.616Z,5536.00
2018-06-24T06:05:27.532Z,4304.00
2018-06-24T06:06:27.463Z,4996.00
2018-06-24T06:07:27.368Z,5228.00
2018-06-24T06:08:27.294Z,6100.00
2018-06-24T06:09:27.209Z,7140.00
2018-06-24T06:10:27.175Z,6540.00
2018-06-24T06:11:27.046Z,6476.00
2018-06-24T06:12:26.970Z,5680.00
2018-06-24T06:13:26.878Z,5904.00
2018-06-24T06:14:26.807Z,4808.00
2018-06-24T06:15:26.721Z,3924.00
2018-06-24T06:16:26.647Z,3604.00
2018-06-24T06:17:26.553Z,2896.00
2018-06-24T06:18:26.480Z,3612.00
2018-06-24T06:19:26.394Z,4596.00
2018-06-24T06:20:26.341Z,3724.00
2018-06-24T06:21:26.238Z,4708.00
2018-06-24T06:22:26.160Z,5112.00
2018-06-24T06:23:26.068Z,4172.00
2018-06-24T06:24:25.993Z,4936.00
2018-06-24T06:25:25.908Z,4628.00
2018-06-24T06:26:25.834Z,3688.00
2018-06-24T06:27:25.749Z,4028.00
2018-06-24T06:28:25.676Z,4084.00
2018-06-24T06:29:25.582Z,3848.00
2018-06-24T06:30:25.569Z,3364.00
2018-06-24T06:31:25.426Z,3680.00
2018-06-24T06:32:25.349Z,3592.00
2018-06-24T06:33:25.258Z,2916.00
2018-06-24T06:34:25.182Z,2644.00
2018-06-24T06:35:25.094Z,3516.00
2018-06-24T06:36:25.020Z,4456.00
2018-06-24T06:37:24.935Z,4832.00
2018-06-24T06:38:24.861Z,4820.00
2018-06-24T06:39:24.771Z,7648.00
2018-06-24T06:40:24.696Z,7000.00
2018-06-24T06:41:24.612Z,6956.00
2018-06-24T06:42:24.539Z,6860.00
2018-06-24T06:43:24.449Z,4884.00
2018-06-24T06:44:24.377Z,5748.00
2018-06-24T06:45:24.405Z,6020.00
2018-06-24T06:46:24.207Z,6708.00
2018-06-24T06:47:24.124Z,5596.00
2018-06-24T06:48:24.044Z,7832.00
2018-06-24T06:49:23.961Z,8204.00
2018-06-24T06:50:23.886Z,6012.00
2018-06-24T06:51:23.801Z,7124.00
2018-06-24T06:52:23.727Z,6232.00
2018-06-24T06:53:23.635Z,6960.00
2018-06-24T06:54:23.559Z,5412.00
2018-06-24T06:55:23.477Z,5988.00
2018-06-24T06:56:23.400Z,5840.00
2018-06-24T06:57:23.321Z,6504.00
2018-06-24T06:58:23.233Z,7320.00
2018-06-24T06:59:23.149Z,7164.00
2018-06-24T07:00:23.074Z,7500.00
2018-06-24T07:01:22.989Z,6168.00
2018-06-24T07:02:22.927Z,5628.00
2018-06-24T07:03:22.878Z,7604.00
2018-06-24T07:04:22.749Z,5564.00
2018-06-24T07:05:22.665Z,6504.00
2018-06-24T07:06:22.594Z,6616.00
2018-06-24T07:07:22.502Z,9304.00
2018-06-24T07:08:22.426Z,9228.00
2018-06-24T07:09:22.339Z,9200.00
2018-06-24T07:10:22.259Z,8480.00
2018-06-24T07:11:22.179Z,6972.00
2018-06-24T07:12:22.103Z,6040.00
2018-06-24T07:13:22.012Z,5808.00
2018-06-24T07:14:21.937Z,6940.00
2018-06-24T07:15:21.849Z,6252.00
2018-06-24T07:16:21.773Z,7056.00
2018-06-24T07:17:21.689Z,7392.00
2018-06-24T07:18:21.614Z,7524.00
2018-06-24T07:19:21.523Z,7452.00
2018-06-24T07:20:21.448Z,7920.00
2018-06-24T07:21:21.364Z,9576.00
2018-06-24T07:22:21.289Z,7104.00
2018-06-24T07:23:21.205Z,8596.00
2018-06-24T07:24:21.135Z,10408.00
2018-06-24T07:25:21.042Z,12256.00
2018-06-24T07:26:20.964Z,12464.00
2018-06-24T07:27:20.878Z,10392.00
2018-06-24T07:28:20.806Z,9220.00
2018-06-24T07:29:20.724Z,10028.00
2018-06-24T07:30:20.640Z,10356.00
2018-06-24T07:31:20.551Z,10792.00
2018-06-24T07:32:20.477Z,9576.00
2018-06-24T07:33:20.461Z,12708.00
2018-06-24T07:34:20.317Z,11976.00
2018-06-24T07:35:20.238Z,11380.00
2018-06-24T07:36:20.152Z,9644.00
2018-06-24T07:37:20.082Z,9320.00
2018-06-24T07:38:19.995Z,8528.00
2018-06-24T07:39:19.968Z,8960.00
2018-06-24T07:40:19.829Z,7980.00
2018-06-24T07:41:19.750Z,12136.00
2018-06-24T07:42:19.662Z,9228.00
2018-06-24T07:43:19.593Z,9312.00
2018-06-24T07:44:19.506Z,9416.00
2018-06-24T07:45:19.428Z,10564.00
2018-06-24T07:46:19.341Z,8660.00
2018-06-24T07:47:19.277Z,8800.00
2018-06-24T07:48:19.188Z,9868.00
2018-06-24T07:49:19.111Z,7156.00
2018-06-24T07:50:19.087Z,7616.00
2018-06-24T07:51:18.940Z,7132.00
2018-06-24T07:52:18.879Z,4488.00
2018-06-24T07:53:18.783Z,7172.00
2018-06-24T07:54:18.721Z,5596.00
2018-06-24T07:55:18.618Z,6812.00
2018-06-24T07:56:18.543Z,6872.00
2018-06-24T07:57:18.468Z,6724.00
2018-06-24T07:58:18.381Z,7884.00
2018-06-24T07:59:18.300Z,9784.00
2018-06-24T08:00:18.220Z,9032.00
2018-06-24T08:01:18.129Z,7704.00
2018-06-24T08:02:18.054Z,10724.00
2018-06-24T08:03:18.032Z,8276.00
2018-06-24T08:04:17.889Z,8292.00
2018-06-24T08:05:17.880Z,8612.00
2018-06-24T08:06:17.732Z,9248.00
2018-06-24T08:07:17.653Z,8880.00
2018-06-24T08:08:17.564Z,9316.00
2018-06-24T08:09:17.506Z,8244.00
2018-06-24T08:10:17.408Z,10040.00
2018-06-24T08:11:17.347Z,9272.00
2018-06-24T08:12:17.246Z,8344.00
2018-06-24T08:13:17.167Z,8336.00
2018-06-24T08:14:17.081Z,9692.00
2018-06-24T08:15:17.008Z,7532.00
2018-06-24T08:16:16.920Z,7956.00
2018-06-24T08:17:16.843Z,7948.00
2018-06-24T08:18:16.754Z,7360.00
2018-06-24T08:19:16.692Z,6036.00
2018-06-24T08:20:16.599Z,5720.00
2018-06-24T08:21:16.523Z,5460.00
2018-06-24T08:22:16.437Z,5188.00
2018-06-24T08:23:16.357Z,4052.00
2018-06-24T08:24:16.270Z,4436.00
2018-06-24T08:25:16.198Z,5992.00
2018-06-24T08:26:16.112Z,3660.00
2018-06-24T08:27:16.035Z,3804.00
2018-06-24T08:28:15.959Z,3768.00
2018-06-24T08:29:15.867Z,3288.00
2018-06-24T08:30:15.793Z,4728.00
2018-06-24T08:31:15.712Z,4252.00
2018-06-24T08:32:15.638Z,6228.00
2018-06-24T08:33:15.544Z,5540.00
2018-06-24T08:34:15.470Z,6340.00
2018-06-24T08:35:15.381Z,5520.00
2018-06-24T08:36:15.309Z,6556.00
2018-06-24T08:37:15.222Z,7416.00
2018-06-24T08:38:15.148Z,7244.00
2018-06-24T08:39:15.056Z,11528.00
2018-06-24T08:40:14.983Z,10500.00
2018-06-24T08:41:14.898Z,7324.00
2018-06-24T08:42:14.823Z,8984.00
2018-06-24T08:43:14.739Z,9060.00
2018-06-24T08:44:14.664Z,6172.00
2018-06-24T08:45:14.571Z,6588.00
2018-06-24T08:46:14.496Z,10800.00
2018-06-24T08:47:14.474Z,10864.00
2018-06-24T08:48:14.338Z,7240.00
2018-06-24T08:49:14.245Z,8252.00
2018-06-24T08:50:14.169Z,7904.00
2018-06-24T08:51:14.086Z,6296.00
2018-06-24T08:52:14.010Z,8756.00
2018-06-24T08:53:13.925Z,7816.00
2018-06-24T08:54:13.924Z,10624.00
2018-06-24T08:55:13.766Z,10120.00
2018-06-24T08:56:13.693Z,9492.00
2018-06-24T08:57:13.598Z,8972.00
2018-06-24T08:58:13.522Z,8828.00
2018-06-24T08:59:13.434Z,8816.00
2018-06-24T09:00:13.359Z,10276.00
2018-06-24T09:01:13.276Z,10724.00
2018-06-24T09:02:13.200Z,10992.00
2018-06-24T09:03:13.124Z,10804.00
2018-06-24T09:04:13.037Z,13988.00
2018-06-24T09:05:12.966Z,12804.00
2018-06-24T09:06:12.877Z,9364.00
2018-06-24T09:07:12.801Z,9208.00
2018-06-24T09:08:12.713Z,8972.00
2018-06-24T09:09:12.635Z,12868.00
2018-06-24T09:10:12.561Z,12756.00
2018-06-24T09:11:12.476Z,14044.00
2018-06-24T09:12:12.396Z,16144.00
2018-06-24T09:13:12.310Z,15708.00
2018-06-24T09:14:12.223Z,12928.00
2018-06-24T09:15:12.183Z,16572.00
2018-06-24T09:16:12.064Z,15432.00
2018-06-24T09:17:11.993Z,13188.00
2018-06-24T09:18:11.917Z,14472.00
2018-06-24T09:19:11.828Z,12932.00
2018-06-24T09:20:11.748Z,13648.00
2018-06-24T09:21:11.666Z,11468.00
2018-06-24T09:22:11.654Z,9716.00
2018-06-24T09:23:11.504Z,10196.00
2018-06-24T09:24:11.431Z,12964.00
2018-06-24T09:25:11.340Z,15680.00
2018-06-24T09:26:11.264Z,16636.00
2018-06-24T09:27:11.194Z,15364.00
2018-06-24T09:28:11.112Z,11920.00
2018-06-24T09:29:11.026Z,14160.00
2018-06-24T09:30:10.939Z,18944.00
2018-06-24T09:31:10.863Z,12956.00
2018-06-24T09:32:10.787Z,12972.00
2018-06-24T09:33:10.703Z,18432.00
2018-06-24T09:34:10.638Z,14336.00
2018-06-24T09:35:10.540Z,13300.00
2018-06-24T09:36:10.468Z,12748.00
2018-06-24T09:37:10.381Z,15272.00
2018-06-24T09:38:10.307Z,15192.00
2018-06-24T09:39:10.231Z,21920.00
2018-06-24T09:40:10.142Z,22944.00
2018-06-24T09:41:10.073Z,16004.00
2018-06-24T09:42:09.976Z,15332.00
2018-06-24T09:43:09.911Z,11464.00
2018-06-24T09:44:09.830Z,18848.00
2018-06-24T09:45:09.740Z,16664.00
2018-06-24T09:46:09.666Z,17952.00
2018-06-24T09:47:09.580Z,21024.00
2018-06-24T09:48:09.504Z,16192.00
2018-06-24T09:49:09.432Z,13440.00
2018-06-24T09:50:09.346Z,24768.00
2018-06-24T09:51:09.266Z,26144.00
2018-06-24T09:52:09.190Z,24480.00
2018-06-24T09:53:09.106Z,15424.00
2018-06-24T09:54:09.031Z,15352.00
2018-06-24T09:55:08.958Z,15532.00
2018-06-24T09:56:08.872Z,17296.00
2018-06-24T09:57:08.793Z,11164.00
2018-06-24T09:58:08.719Z,8676.00
2018-06-24T09:59:08.632Z,13568.00
2018-06-24T10:00:08.556Z,11236.00
2018-06-24T10:01:08.466Z,13772.00
2018-06-24T10:02:08.391Z,15336.00
2018-06-24T10:03:08.318Z,16364.00
2018-06-24T10:04:08.235Z,12860.00
2018-06-24T10:05:08.160Z,11568.00
2018-06-24T10:06:08.085Z,13312.00
2018-06-24T10:07:07.991Z,12636.00
2018-06-24T10:08:07.917Z,11912.00
2018-06-24T10:09:07.845Z,8976.00
2018-06-24T10:10:07.758Z,7276.00
2018-06-24T10:11:07.729Z,9116.00
2018-06-24T10:12:07.623Z,10052.00
2018-06-24T10:13:07.522Z,11088.00
2018-06-24T10:14:07.445Z,14796.00
2018-06-24T10:15:07.376Z,22880.00
2018-06-24T10:16:07.287Z,23424.00
2018-06-24T10:17:07.220Z,20288.00
2018-06-24T10:18:07.120Z,17180.00
2018-06-24T10:19:07.043Z,12268.00
2018-06-24T10:20:06.968Z,13756.00
2018-06-24T10:21:06.884Z,12988.00
2018-06-24T10:22:06.808Z,16416.00
2018-06-24T10:23:06.732Z,17312.00
2018-06-24T10:24:06.645Z,16992.00
2018-06-24T10:25:06.574Z,18336.00
2018-06-24T10:26:06.488Z,16640.00
2018-06-24T10:27:06.411Z,14976.00
2018-06-24T10:28:06.347Z,14864.00
2018-06-24T10:29:06.244Z,12744.00
2018-06-24T10:30:06.170Z,12148.00
2018-06-24T10:31:06.097Z,12812.00
2018-06-24T10:32:06.013Z,7288.00
2018-06-24T10:33:05.932Z,7204.00
2018-06-24T10:34:05.856Z,13972.00
2018-06-24T10:35:05.772Z,10820.00
2018-06-24T10:36:05.697Z,15596.00
2018-06-24T10:37:05.625Z,12188.00
2018-06-24T10:38:05.538Z,14840.00
2018-06-24T10:39:05.457Z,9556.00
2018-06-24T10:40:05.382Z,14612.00
2018-06-24T10:41:05.339Z,20608.00
2018-06-24T10:42:05.224Z,18816.00
2018-06-24T10:43:05.139Z,18912.00
2018-06-24T10:44:05.064Z,20416.00
2018-06-24T10:45:04.985Z,25248.00
2018-06-24T10:46:04.897Z,27520.00
2018-06-24T10:47:04.828Z,27680.00
2018-06-24T10:48:04.751Z,23264.00
2018-06-24T10:49:04.661Z,15828.00
2018-06-24T10:50:04.584Z,10048.00
2018-06-24T10:51:04.508Z,10076.00
2018-06-24T10:52:04.421Z,7128.00
2018-06-24T10:53:04.444Z,5876.00
2018-06-24T10:54:04.278Z,6824.00
2018-06-24T10:55:04.185Z,9764.00
2018-06-24T10:56:04.110Z,15556.00
2018-06-24T10:57:04.042Z,16324.00
2018-06-24T10:58:03.966Z,18784.00
2018-06-24T10:59:03.877Z,15792.00
2018-06-24T11:00:03.802Z,14408.00
2018-06-24T11:01:03.726Z,16404.00
2018-06-24T11:02:03.687Z,21504.00
2018-06-24T11:03:03.564Z,24576.00
2018-06-24T11:04:03.479Z,23936.00
2018-06-24T11:05:03.399Z,23584.00
2018-06-24T11:06:03.324Z,22144.00
2018-06-24T11:07:03.234Z,18464.00
2018-06-24T11:08:03.159Z,12312.00
2018-06-24T11:09:03.089Z,13380.00
2018-06-24T11:10:03.007Z,10008.00
2018-06-24T11:11:02.925Z,13088.00
2018-06-24T11:12:02.850Z,17208.00
2018-06-24T11:13:02.767Z,13136.00
2018-06-24T11:14:02.691Z,8564.00
2018-06-24T11:15:02.632Z,7176.00
2018-06-24T11:16:02.532Z,7024.00
2018-06-24T11:17:02.448Z,6584.00
2018-06-24T11:18:02.362Z,5696.00
2018-06-24T11:19:02.289Z,6104.00
2018-06-24T11:20:02.216Z,6864.00
2018-06-24T11:21:02.127Z,7404.00
2018-06-24T11:22:02.049Z,8000.00
2018-06-24T11:23:01.976Z,7892.00
2018-06-24T11:24:01.888Z,9548.00
2018-06-24T11:25:01.828Z,16312.00
2018-06-24T11:26:01.743Z,17296.00
2018-06-24T11:27:01.652Z,15960.00
2018-06-24T11:28:01.576Z,18560.00
2018-06-24T11:29:01.490Z,18496.00
2018-06-24T11:30:01.416Z,17920.00
2018-06-24T11:31:01.404Z,19488.00
2018-06-24T11:32:01.256Z,15576.00
2018-06-24T11:33:01.177Z,11048.00
2018-06-24T11:34:01.090Z,9576.00
2018-06-24T11:35:01.019Z,11104.00
2018-06-24T11:36:00.943Z,13876.00
2018-06-24T11:37:00.869Z,9852.00
2018-06-24T11:38:00.777Z,7172.00
2018-06-24T11:39:00.704Z,5344.00
2018-06-24T11:40:00.613Z,3196.00
2018-06-24T11:41:00.541Z,3432.00
2018-06-24T11:42:00.492Z,7692.00
2018-06-24T11:43:00.378Z,7136.00
2018-06-24T11:44:00.306Z,7004.00
2018-06-24T11:45:00.219Z,7436.00
2018-06-24T11:46:00.146Z,5544.00
2018-06-24T11:47:00.067Z,7492.00
2018-06-24T11:47:59.980Z,8316.00
2018-06-24T11:48:59.901Z,10248.00
2018-06-24T11:49:59.813Z,12404.00
2018-06-24T11:50:59.743Z,14708.00
2018-06-24T11:51:59.670Z,15492.00
2018-06-24T11:52:59.577Z,16888.00
2018-06-24T11:53:59.502Z,20416.00
2018-06-24T11:54:59.416Z,21280.00
2018-06-24T11:55:59.341Z,22464.00
2018-06-24T11:56:59.298Z,22144.00
2018-06-24T11:57:59.183Z,21472.00
2018-06-24T11:58:59.091Z,18112.00
2018-06-24T11:59:59.014Z,14956.00
2018-06-24T12:00:58.943Z,16396.00
2018-06-24T12:01:58.896Z,12524.00
2018-06-24T12:02:58.785Z,7020.00
2018-06-24T12:03:58.712Z,6204.00
2018-06-24T12:04:58.618Z,7144.00
2018-06-24T12:05:58.543Z,7160.00
2018-06-24T12:06:58.583Z,8600.00
2018-06-24T12:07:58.383Z,8876.00
2018-06-24T12:08:58.304Z,10156.00
2018-06-24T12:09:58.220Z,11580.00
2018-06-24T12:10:58.151Z,12368.00
2018-06-24T12:11:58.057Z,13852.00
2018-06-24T12:12:57.985Z,15056.00
2018-06-24T12:13:57.910Z,11780.00
2018-06-24T12:14:57.816Z,12428.00
2018-06-24T12:15:57.741Z,13912.00
2018-06-24T12:16:57.670Z,13876.00